Time;durP1;ratioP1;P1;durP2;ratioP2;P2;SDS_P1;SDS_P2;PMS_P1;PMS_P2;Temp;Humidity;BMP_temperature;BMP_pressure;BME280_temperature;BME280_humidity;BME280_pressure;Samples;Min_cycle;Max_cycle;Signal;HPM_P1;HPM_P2
2021/10/14 00:01:41;;;;;;;33.60;19.52;;;;;;;2.52;76.49;101014.53;2085733;84;30363;-63
2021/10/14 00:04:48;;;;;;;36.95;20.90;;;;;;;2.50;76.61;101009.70;2085743;83;28148;-63
2021/10/14 00:07:49;;;;;;;37.08;20.72;;;;;;;2.48;76.82;101003.98;2067721;83;28719;-64
2021/10/14 00:10:52;;;;;;;32.85;19.52;;;;;;;2.45;76.70;101005.31;2124683;82;32053;-62
2021/10/14 00:13:55;;;;;;;34.95;20.15;;;;;;;2.43;76.69;101005.34;2129822;82;34188;-65
2021/10/14 00:17:01;;;;;;;31.85;19.62;;;;;;;2.38;76.67;100998.76;2110236;81;29335;-64
2021/10/14 00:20:05;;;;;;;30.37;18.27;;;;;;;2.36;76.73;100988.63;2109384;82;27621;-64
2021/10/14 00:23:08;;;;;;;26.90;15.03;;;;;;;2.35;76.74;100992.58;2116627;82;28690;-63
2021/10/14 00:26:12;;;;;;;33.28;19.32;;;;;;;2.33;76.94;100993.92;2084720;82;30854;-63
2021/10/14 00:29:18;;;;;;;22.98;14.15;;;;;;;2.31;76.93;100995.69;2078309;83;32995;-63
2021/10/14 00:32:20;;;;;;;30.35;18.55;;;;;;;2.31;76.98;100998.33;2057364;84;29381;-63
2021/10/14 00:35:25;;;;;;;27.25;16.48;;;;;;;2.32;77.04;100989.98;2075501;83;27719;-63
2021/10/14 00:38:31;;;;;;;33.13;18.12;;;;;;;2.30;76.98;100992.61;2063513;85;29746;-63
2021/10/14 00:41:38;;;;;;;30.15;18.48;;;;;;;2.30;77.05;101000.54;2045475;85;31077;-64
2021/10/14 00:44:57;;;;;;;28.23;15.75;;;;;;;2.30;77.01;101001.86;2087588;82;33784;-63
2021/10/14 00:48:01;;;;;;;29.48;18.30;;;;;;;2.32;77.17;100999.23;2026687;85;29449;-64
2021/10/14 00:51:07;;;;;;;32.23;17.82;;;;;;;2.36;77.25;101003.17;2062611;84;27667;-63
2021/10/14 00:54:09;;;;;;;29.05;16.87;;;;;;;2.39;77.35;101000.52;2048232;85;28711;-64
2021/10/14 00:57:15;;;;;;;26.15;16.65;;;;;;;2.45;77.50;101004.00;2071688;83;32275;-63
2021/10/14 01:00:20;;;;;;;26.65;15.60;;;;;;;2.54;77.64;101011.44;2051923;84;33077;-64
2021/10/14 01:03:24;;;;;;;26.02;15.53;;;;;;;2.62;77.72;101010.08;2085535;81;29375;-65
2021/10/14 01:06:28;;;;;;;21.52;13.90;;;;;;;2.71;77.78;101005.19;2121984;82;27756;-63
2021/10/14 01:09:34;;;;;;;31.60;17.37;;;;;;;2.80;77.93;101006.47;2078505;83;29337;-64
2021/10/14 01:12:38;;;;;;;34.23;17.20;;;;;;;2.87;77.96;101002.87;2092721;82;31066;-63
2021/10/14 01:15:44;;;;;;;25.90;16.15;;;;;;;2.98;78.10;100996.66;2083268;82;33797;-64
2021/10/14 01:18:48;;;;;;;30.65;16.23;;;;;;;3.07;78.14;100993.03;2106618;82;29333;-64
2021/10/14 01:21:54;;;;;;;26.85;16.60;;;;;;;3.17;78.14;100993.42;2079466;82;27700;-63
2021/10/14 01:24:59;;;;;;;27.87;16.55;;;;;;;3.26;78.15;100996.44;2097578;83;28691;-63
2021/10/14 01:28:05;;;;;;;27.87;15.63;;;;;;;3.34;78.16;100991.52;2097535;81;31019;-63
2021/10/14 01:31:11;;;;;;;30.57;15.45;;;;;;;3.42;78.24;100992.77;2088045;82;32996;-63
2021/10/14 01:34:15;;;;;;;28.23;16.23;;;;;;;3.52;78.25;100985.62;2094218;83;29479;-65
2021/10/14 01:37:21;;;;;;;22.20;14.10;;;;;;;3.60;78.24;100982.89;2095829;82;27824;-63
2021/10/14 01:40:27;;;;;;;22.65;14.13;;;;;;;3.68;78.22;100981.49;2078073;82;28704;-64
2021/10/14 01:43:36;;;;;;;27.67;15.68;;;;;;;3.76;78.22;100981.84;2104644;81;31124;-64
2021/10/14 01:46:41;;;;;;;26.60;15.40;;;;;;;3.83;78.21;100981.33;2089734;83;33019;-64
2021/10/14 01:49:43;;;;;;;;;;;;;;;3.90;78.23;100983.00;2103947;81;29374;-63
2021/10/14 01:52:46;;;;;;;21.75;14.43;;;;;;;3.98;78.24;100981.59;2109994;82;27831;-65
2021/10/14 01:55:51;;;;;;;25.08;15.40;;;;;;;4.03;78.20;100977.59;2088960;82;29484;-63
2021/10/14 01:58:57;;;;;;;21.02;14.00;;;;;;;4.09;78.16;100973.52;2108893;82;31236;-63
2021/10/14 02:02:01;;;;;;;23.92;14.40;;;;;;;4.14;78.14;100962.87;2112496;82;33880;-63
2021/10/14 02:05:08;;;;;;;22.27;14.83;;;;;;;4.19;78.09;100963.25;2086475;82;29569;-63
2021/10/14 02:08:14;;;;;;;26.73;14.85;;;;;;;4.24;78.10;100957.88;2129062;82;27874;-63
2021/10/14 02:11:20;;;;;;;29.80;15.35;;;;;;;4.29;78.02;100948.53;2074183;83;28868;-65
2021/10/14 02:14:25;;;;;;;27.77;15.88;;;;;;;4.34;77.92;100948.03;2092110;82;31930;-64
2021/10/14 02:17:30;;;;;;;21.25;13.93;;;;;;;4.36;77.86;100947.56;2089318;82;33821;-64
2021/10/14 02:20:36;;;;;;;22.82;13.53;;;;;;;4.37;77.68;100944.88;2064088;83;30109;-64
2021/10/14 02:23:42;;;;;;;30.97;14.73;;;;;;;4.38;77.64;100949.28;2058680;84;27552;-64
2021/10/14 02:26:47;;;;;;;25.48;15.25;;;;;;;4.38;77.56;100953.27;2100515;82;28736;-63
2021/10/14 02:29:49;;;;;;;23.12;14.00;;;;;;;4.37;77.43;100952.84;2130999;81;31885;-64
2021/10/14 02:32:52;;;;;;;21.37;13.60;;;;;;;4.35;77.31;100948.00;2093972;82;34458;-64
2021/10/14 02:35:58;;;;;;;23.67;14.18;;;;;;;4.34;77.30;100946.23;2090364;82;29419;-63
2021/10/14 02:39:00;;;;;;;26.45;15.03;;;;;;;4.33;77.28;100943.16;2079474;82;27731;-64
2021/10/14 02:42:06;;;;;;;21.90;13.75;;;;;;;4.31;77.18;100950.72;2099597;83;29915;-63
2021/10/14 02:45:13;;;;;;;24.30;13.88;;;;;;;4.28;77.13;100950.32;2121777;81;31132;-64
2021/10/14 02:48:19;;;;;;;25.50;14.15;;;;;;;4.27;77.10;100951.22;2118969;82;32494;-64
2021/10/14 02:51:25;;;;;;;23.77;14.28;;;;;;;4.23;76.99;100945.52;2082119;83;29339;-64
2021/10/14 02:54:31;;;;;;;20.43;13.40;;;;;;;4.19;76.83;100955.72;2074043;83;27884;-63
2021/10/14 02:57:37;;;;;;;23.77;13.78;;;;;;;4.14;76.77;100953.59;2070445;84;28715;-63
2021/10/14 03:00:44;;;;;;;18.17;11.95;;;;;;;4.09;76.79;100955.85;2105960;81;31056;-64
2021/10/14 03:03:45;;;;;;;18.07;11.80;;;;;;;4.03;76.67;100959.89;2112006;81;33030;-66
2021/10/14 03:06:49;;;;;;;21.70;13.32;;;;;;;4.00;76.68;100961.25;2121783;82;30699;-64
2021/10/14 03:09:55;;;;;;;24.07;14.23;;;;;;;3.95;76.67;100963.95;2091240;82;27685;-66
2021/10/14 03:13:01;;;;;;;23.05;13.38;;;;;;;3.93;76.74;100966.20;2082041;81;29829;-66
2021/10/14 03:16:08;;;;;;;21.12;13.70;;;;;;;3.92;76.73;100968.42;2076980;81;31028;-66
2021/10/14 03:19:13;;;;;;;25.40;15.05;;;;;;;3.92;76.80;100973.73;2095786;83;33813;-65
2021/10/14 03:22:19;;;;;;;24.40;14.23;;;;;;;3.91;76.84;100974.16;2101720;83;31084;-65
2021/10/14 03:25:23;;;;;;;21.30;13.08;;;;;;;3.89;76.90;100962.69;2095659;82;28291;-65
2021/10/14 03:28:25;;;;;;;22.55;13.40;;;;;;;3.90;76.88;100972.86;2064780;82;28949;-65
2021/10/14 03:31:31;;;;;;;23.18;13.40;;;;;;;3.89;76.89;100970.64;2094524;82;32187;-65
2021/10/14 03:34:37;;;;;;;24.15;12.98;;;;;;;3.88;76.86;100977.30;2073089;83;33140;-65
2021/10/14 03:37:41;;;;;;;24.35;14.45;;;;;;;3.87;76.77;100982.17;2075595;83;30181;-64
2021/10/14 03:40:43;;;;;;;24.85;14.85;;;;;;;3.84;76.72;100976.89;2128799;82;27702;-64
2021/10/14 03:43:50;;;;;;;22.55;13.62;;;;;;;3.80;76.62;100972.98;2123490;82;28883;-64
2021/10/14 03:46:54;;;;;;;22.85;12.45;;;;;;;3.74;76.50;100970.38;2038657;82;32056;-65
2021/10/14 03:50:00;;;;;;;20.80;13.35;;;;;;;3.70;76.51;100970.44;2076772;84;32588;-64
2021/10/14 03:53:09;;;;;;;18.80;12.53;;;;;;;3.67;76.63;100968.67;2033435;84;29359;-65
2021/10/14 03:56:12;;;;;;;19.27;13.10;;;;;;;3.64;76.54;100970.05;1995637;86;27849;-64
2021/10/14 03:59:15;;;;;;;24.02;13.45;;;;;;;3.63;76.64;100966.98;2037645;84;28682;-65
2021/10/14 04:02:20;;;;;;;20.80;13.25;;;;;;;3.63;76.74;100968.30;2108884;82;31225;-64
2021/10/14 04:05:25;;;;;;;;;;;;;;;3.64;76.83;100974.03;2111547;82;34048;-64
2021/10/14 04:08:27;;;;;;;18.05;11.85;;;;;;;3.66;77.00;100980.16;2108406;82;30124;-63
2021/10/14 04:14:35;;;;;;;20.80;12.53;;;;;;;3.68;77.10;100971.76;2101303;81;28690;-65
2021/10/14 04:17:40;;;;;;;23.32;13.18;;;;;;;3.72;77.12;100970.84;2116923;81;32221;-64
2021/10/14 04:20:45;;;;;;;24.37;14.33;;;;;;;3.75;77.12;100972.56;2068571;83;33951;-65
2021/10/14 04:23:51;;;;;;;20.92;14.18;;;;;;;3.77;77.07;100972.11;2081801;83;29340;-65
2021/10/14 04:26:57;;;;;;;21.95;12.58;;;;;;;3.79;77.17;100971.22;2033646;84;27829;-65
2021/10/14 04:30:04;;;;;;;19.77;13.05;;;;;;;3.82;77.18;100972.95;2067808;84;28651;-64
2021/10/14 04:33:10;;;;;;;25.52;15.03;;;;;;;3.85;77.27;100971.59;2096986;83;31055;-63
2021/10/14 04:36:13;;;;;;;21.57;14.20;;;;;;;3.89;77.31;100973.30;2104935;82;33361;-64
2021/10/14 04:39:21;;;;;;;23.00;14.10;;;;;;;3.93;77.38;100970.19;2096208;83;29389;-63
2021/10/14 04:42:23;;;;;;;23.45;14.28;;;;;;;3.99;77.47;100968.77;2032734;84;28185;-64
2021/10/14 04:45:29;;;;;;;25.60;15.50;;;;;;;4.04;77.57;100960.33;2053181;84;28666;-64
2021/10/14 04:48:36;;;;;;;22.55;13.35;;;;;;;4.09;77.57;100966.45;2073453;83;31239;-64
2021/10/14 04:51:42;;;;;;;22.50;14.30;;;;;;;4.16;77.60;100966.36;2097441;82;32981;-63
2021/10/14 04:54:48;;;;;;;29.55;15.35;;;;;;;4.21;77.64;100964.54;2116249;80;29549;-64
2021/10/14 04:57:53;;;;;;;24.67;14.50;;;;;;;4.26;77.68;100956.09;2058391;83;27701;-64
2021/10/14 05:01:00;;;;;;;22.25;14.18;;;;;;;4.31;77.70;100960.86;2097374;83;29830;-63
2021/10/14 05:04:06;;;;;;;24.67;16.37;;;;;;;4.36;77.73;100955.06;2061967;84;31058;-63
2021/10/14 05:07:08;;;;;;;29.67;17.52;;;;;;;4.44;77.75;100970.01;2100001;82;32951;-65
2021/10/14 05:10:14;;;;;;;25.80;16.12;;;;;;;4.49;77.81;100965.50;2090633;81;30472;-63
2021/10/14 05:13:16;;;;;;;32.17;17.57;;;;;;;4.54;77.87;100971.20;2122657;82;27901;-63
2021/10/14 05:16:23;;;;;;;30.10;17.37;;;;;;;4.60;77.82;100973.31;2076653;84;28676;-63
2021/10/14 05:19:29;;;;;;;29.82;18.92;;;;;;;4.66;77.91;100974.56;2046079;84;31111;-63
2021/10/14 05:22:35;;;;;;;30.72;19.00;;;;;;;4.71;77.95;100967.42;2127589;82;32995;-64
2021/10/14 05:25:42;;;;;;;33.50;17.92;;;;;;;4.77;77.90;100965.13;2113846;81;30150;-62
2021/10/14 05:28:48;;;;;;;28.98;17.90;;;;;;;4.83;77.92;100964.58;2076872;82;27722;-64
2021/10/14 05:31:51;;;;;;;32.10;17.65;;;;;;;4.88;77.84;100972.47;2099062;81;29523;-63
2021/10/14 05:34:59;;;;;;;29.70;18.23;;;;;;;4.93;77.82;100965.32;2103226;81;32577;-64
2021/10/14 05:38:06;;;;;;;31.45;18.12;;;;;;;4.97;77.73;100969.66;2103268;82;32905;-64
2021/10/14 05:41:12;;;;;;;28.27;16.23;;;;;;;5.01;77.74;100958.09;2090283;82;29599;-64
2021/10/14 05:44:18;;;;;;;27.93;16.52;;;;;;;5.08;77.84;100958.00;2102855;82;27721;-64
2021/10/14 05:47:24;;;;;;;38.20;15.53;;;;;;;5.14;77.91;100957.45;2094861;82;28675;-63
2021/10/14 05:50:30;;;;;;;22.87;15.10;;;;;;;5.20;77.87;100956.94;2041928;83;31937;-64
2021/10/14 05:53:36;;;;;;;31.00;15.08;;;;;;;5.27;77.92;100955.91;2071524;84;32978;-65
2021/10/14 05:56:43;;;;;;;23.90;14.25;;;;;;;5.33;77.85;100956.68;2059195;83;30280;-66
2021/10/14 05:59:47;;;;;;;29.35;15.98;;;;;;;5.40;77.84;100957.91;2106515;81;27780;-65
2021/10/14 06:02:49;;;;;;;23.77;13.93;;;;;;;5.47;77.91;100961.77;2118639;81;29518;-64
2021/10/14 06:05:55;;;;;;;27.15;16.35;;;;;;;5.53;77.75;100954.59;2102683;81;31624;-63
2021/10/14 06:08:58;;;;;;;31.07;15.20;;;;;;;5.58;77.80;100959.34;2086739;83;32991;-64
2021/10/14 06:12:04;;;;;;;23.90;15.58;;;;;;;5.64;77.79;100959.25;2056464;84;29369;-63
2021/10/14 06:15:09;;;;;;;22.87;14.58;;;;;;;5.70;77.68;100970.22;2016863;85;28416;-63
2021/10/14 06:18:15;;;;;;;28.05;15.55;;;;;;;5.75;77.67;100964.38;2049235;84;28706;-64
2021/10/14 06:21:20;;;;;;;24.35;14.75;;;;;;;5.79;77.51;100970.06;2061342;84;31075;-64
2021/10/14 06:24:25;;;;;;;27.57;16.50;;;;;;;5.86;77.63;100966.83;2048519;83;34483;-64
2021/10/14 06:27:31;;;;;;;31.85;16.42;;;;;;;5.90;77.52;100965.41;2081096;83;29407;-63
2021/10/14 06:30:36;;;;;;;;;;;;;;;5.98;77.58;100965.69;2070839;84;28078;-64
2021/10/14 06:33:42;;;;;;;25.17;16.00;;;;;;;6.05;77.54;100966.03;2087297;83;28672;-64
2021/10/14 06:36:48;;;;;;;26.50;14.75;;;;;;;6.06;77.36;100959.81;2063369;84;31985;-63
2021/10/14 06:39:50;;;;;;;25.40;14.60;;;;;;;6.12;77.34;100964.12;2106044;80;32400;-65
2021/10/14 06:42:56;;;;;;;34.48;15.68;;;;;;;6.16;77.30;100954.71;2084289;83;30676;-65
2021/10/14 06:46:01;;;;;;;29.30;17.05;;;;;;;6.22;77.24;100957.25;2070295;84;27948;-63
2021/10/14 06:49:04;;;;;;;29.65;16.57;;;;;;;6.32;77.46;100960.60;2054086;85;28725;-63
2021/10/14 06:52:10;;;;;;;34.33;17.40;;;;;;;6.46;77.47;100957.62;2090901;83;32191;-63
2021/10/14 06:55:16;;;;;;;29.87;16.57;;;;;;;6.61;77.58;100955.08;2054847;84;33041;-64
2021/10/14 06:58:18;;;;;;;28.77;17.30;;;;;;;6.76;77.45;100955.20;2090027;83;29357;-62
2021/10/14 07:01:21;;;;;;;27.90;16.45;;;;;;;6.88;77.22;100959.81;2100160;82;27665;-63
2021/10/14 07:04:24;;;;;;;28.47;15.05;;;;;;;6.97;77.13;100957.80;2084169;82;28685;-64
2021/10/14 07:07:30;;;;;;;22.87;14.47;;;;;;;7.11;77.29;100960.14;2117068;81;31880;-64
2021/10/14 07:10:36;;;;;;;25.72;15.23;;;;;;;7.26;77.08;100965.53;2101080;82;33173;-63
2021/10/14 07:13:44;;;;;;;30.55;15.68;;;;;;;7.37;76.94;100960.38;2074556;82;29361;-63
2021/10/14 07:16:45;;;;;;;;;;;;;;;7.51;77.01;100959.59;2104892;82;27732;-63
2021/10/14 07:19:47;;;;;;;25.65;15.83;;;;;;;7.66;77.07;100963.62;2101484;83;28690;-62
2021/10/14 07:22:53;;;;;;;24.95;15.03;;;;;;;7.75;76.81;100962.05;2085057;83;31879;-64
2021/10/14 07:25:59;;;;;;;25.32;13.30;;;;;;;7.87;76.85;100962.63;2070213;83;34538;-65
2021/10/14 07:29:05;;;;;;;24.63;13.40;;;;;;;7.99;76.78;100955.59;2082407;83;28894;-64
2021/10/14 07:32:10;;;;;;;18.07;12.85;;;;;;;8.15;76.76;100957.83;2073988;84;28327;-63
2021/10/14 07:35:12;;;;;;;18.82;12.95;;;;;;;8.30;76.27;100952.52;2073940;82;29596;-64
2021/10/14 07:38:18;;;;;;;19.95;13.62;;;;;;;8.52;76.56;100944.76;2074372;83;31910;-63
2021/10/14 07:41:21;;;;;;;20.80;12.80;;;;;;;8.83;76.84;100947.80;2094247;82;33003;-64
2021/10/14 07:44:27;;;;;;;22.32;14.68;;;;;;;9.15;76.43;100953.03;2106150;81;29403;-63
2021/10/14 07:47:33;;;;;;;21.60;12.85;;;;;;;9.33;76.03;100952.86;2082940;83;27679;-64
2021/10/14 07:50:44;;;;;;;21.23;13.62;;;;;;;9.40;75.60;100952.60;2098269;82;28641;-64
2021/10/14 07:53:46;;;;;;;25.70;13.78;;;;;;;9.47;75.63;100951.92;2090931;82;31035;-63
2021/10/14 07:56:49;;;;;;;21.87;12.60;;;;;;;9.54;75.23;100946.78;2123366;81;33338;-63
2021/10/14 07:59:51;;;;;;;24.37;14.85;;;;;;;9.63;75.50;100961.64;2084171;82;29582;-64
2021/10/14 08:02:57;;;;;;;24.37;15.83;;;;;;;9.72;75.27;100961.78;2093345;82;27648;-63
2021/10/14 08:06:03;;;;;;;32.58;15.43;;;;;;;9.80;75.26;100949.47;2078820;83;29434;-64
2021/10/14 08:09:10;;;;;;;25.92;13.50;;;;;;;9.91;74.95;100951.28;2118826;82;31074;-64
2021/10/14 08:12:15;;;;;;;19.35;12.58;;;;;;;10.02;74.67;100951.75;2135413;81;32969;-65
2021/10/14 08:15:21;;;;;;;19.02;11.93;;;;;;;10.19;74.84;100951.59;2134517;81;30129;-64
2021/10/14 08:18:27;;;;;;;19.80;11.63;;;;;;;10.32;74.61;100938.61;2116246;82;27624;-65
2021/10/14 08:21:31;;;;;;;19.07;11.40;;;;;;;10.62;74.73;100946.42;2109537;83;28659;-63
2021/10/14 08:24:40;;;;;;;23.67;11.80;;;;;;;10.86;74.56;100943.22;2079921;82;31719;-63
2021/10/14 08:27:46;;;;;;;18.90;11.08;;;;;;;11.05;74.02;100944.70;2070719;83;33194;-63
2021/10/14 08:30:53;;;;;;;18.70;11.97;;;;;;;11.20;73.83;100950.36;2061070;83;29369;-63
2021/10/14 08:33:57;;;;;;;29.10;11.28;;;;;;;11.34;73.51;100947.08;2100260;82;27894;-64
2021/10/14 08:37:03;;;;;;;22.77;11.22;;;;;;;11.46;73.16;100939.87;2085300;83;28690;-65
2021/10/14 08:40:07;;;;;;;21.30;10.93;;;;;;;11.57;72.71;100942.09;2099000;83;31030;-64
2021/10/14 08:43:18;;;;;;;25.30;11.88;;;;;;;11.63;72.77;100935.09;2097469;82;32497;-64
2021/10/14 08:46:21;;;;;;;22.50;12.58;;;;;;;11.75;72.08;100937.72;2076981;84;29549;-65
2021/10/14 08:49:27;;;;;;;25.57;13.50;;;;;;;11.84;72.42;100938.63;2092865;82;27745;-63
2021/10/14 08:52:32;;;;;;;24.27;12.50;;;;;;;11.98;72.16;100935.37;2095680;82;28815;-64
2021/10/14 08:55:38;;;;;;;16.12;9.93;;;;;;;12.14;71.71;100929.30;2076035;83;31050;-65
2021/10/14 08:58:42;;;;;;;19.70;9.85;;;;;;;12.29;71.22;100924.55;2090247;82;33103;-64
2021/10/14 09:02:17;;;;;;;22.55;10.82;;;;;;;12.55;71.27;100920.23;2068892;83;29336;-64
2021/10/14 09:05:18;;;;;;;15.58;9.88;;;;;;;12.83;71.16;100922.91;2060944;85;27846;-63
2021/10/14 09:08:40;;;;;;;17.17;8.95;;;;;;;13.04;70.91;100919.16;2084480;82;29519;-63
2021/10/14 09:11:44;;;;;;;14.55;8.73;;;;;;;13.14;70.40;100915.55;2054507;84;31643;-63
2021/10/14 09:15:05;;;;;;;14.18;9.60;;;;;;;13.21;69.86;100920.14;2042501;84;32998;-63
2021/10/14 09:18:08;;;;;;;18.65;9.10;;;;;;;13.22;69.64;100922.77;2079960;83;30307;-64
2021/10/14 09:21:25;;;;;;;23.42;14.60;;;;;;;13.17;69.43;100923.47;2044657;85;28059;-63
2021/10/14 09:24:38;;;;;;;18.20;10.15;;;;;;;13.16;69.11;100919.48;2098895;82;29558;-62
2021/10/14 09:27:46;;;;;;;15.30;9.58;;;;;;;13.10;68.56;100915.78;2081321;83;31293;-63
2021/10/14 09:30:54;;;;;;;17.35;10.55;;;;;;;13.10;68.54;100914.44;2064661;83;33059;-63
2021/10/14 09:33:58;;;;;;;16.07;9.88;;;;;;;13.07;68.21;100905.57;2106105;82;30231;-64
2021/10/14 09:37:04;;;;;;;20.60;10.78;;;;;;;13.11;68.50;100908.11;2057038;84;27763;-65
2021/10/14 09:40:14;;;;;;;17.87;10.72;;;;;;;13.22;68.44;100904.39;2071169;83;29661;-63
2021/10/14 09:43:17;;;;;;;17.40;11.05;;;;;;;13.28;68.05;100908.13;2087894;82;31122;-65
2021/10/14 09:46:41;;;;;;;20.92;10.80;;;;;;;13.42;68.16;100906.56;2083924;82;34934;-64
2021/10/14 09:49:48;;;;;;;16.00;9.48;;;;;;;13.51;67.46;100909.66;2009594;87;30555;-63
2021/10/14 09:52:54;;;;;;;18.42;9.63;;;;;;;13.54;67.36;100909.95;2006474;87;27799;-64
2021/10/14 09:55:57;;;;;;;19.45;10.10;;;;;;;13.58;66.92;100904.81;2017345;87;28686;-64
2021/10/14 09:59:02;;;;;;;17.82;9.23;;;;;;;13.67;67.21;100903.46;2019529;87;31891;-64
2021/10/14 10:05:10;;;;;;;22.32;12.05;;;;;;;13.73;66.72;100899.57;2013148;85;29368;-64
2021/10/14 10:08:29;;;;;;;19.05;10.80;;;;;;;13.75;66.59;100901.70;2007640;87;28800;-64
2021/10/14 10:11:37;;;;;;;17.07;9.55;;;;;;;13.80;66.73;100895.61;2004980;87;27772;-64
2021/10/14 10:14:42;;;;;;;13.20;9.40;;;;;;;13.84;66.54;100898.51;2014335;87;31090;-65
2021/10/14 10:17:47;;;;;;;13.40;8.18;;;;;;;13.92;66.30;100898.09;2025913;86;33818;-65
2021/10/14 10:20:53;;;;;;;17.95;11.18;;;;;;;14.01;66.34;100897.61;2006852;86;29331;-67
2021/10/14 10:24:05;;;;;;;13.90;8.90;;;;;;;14.12;65.99;100892.49;2037389;86;27995;-65
2021/10/14 10:27:11;;;;;;;28.55;12.00;;;;;;;14.24;66.13;100884.21;2104479;81;29925;-64
2021/10/14 10:30:40;;;;;;;21.97;12.35;;;;;;;14.36;65.75;100877.27;2083251;84;32057;-65
2021/10/14 10:34:01;;;;;;;17.12;10.25;;;;;;;14.47;65.67;100879.37;2140164;81;32988;-64
2021/10/14 10:37:31;;;;;;;21.00;11.95;;;;;;;14.55;65.21;100870.34;2135687;80;30115;-63
2021/10/14 10:40:38;;;;;;;15.43;10.50;;;;;;;14.61;65.11;100861.03;2123809;81;27760;-65
2021/10/14 10:43:42;;;;;;;24.65;9.88;;;;;;;14.78;65.00;100860.56;2143791;82;29711;-64
2021/10/14 10:46:48;;;;;;;14.83;8.13;;;;;;;14.90;64.99;100857.14;2113557;81;31029;-63
2021/10/14 10:50:00;;;;;;;13.28;7.95;;;;;;;15.00;64.60;100851.61;2076385;82;33780;-64
2021/10/14 10:53:15;;;;;;;17.07;9.45;;;;;;;15.06;64.25;100845.47;2084051;82;30225;-63
2021/10/14 10:56:30;;;;;;;14.67;8.97;;;;;;;15.15;64.15;100843.05;2109639;82;27712;-63
2021/10/14 10:59:33;;;;;;;15.93;8.48;;;;;;;15.22;64.13;100841.34;2090005;82;29457;-64
2021/10/14 11:02:38;;;;;;;14.68;8.63;;;;;;;15.24;63.58;100838.08;2088663;83;31890;-64
2021/10/14 11:05:45;;;;;;;13.95;8.23;;;;;;;15.23;63.57;100835.84;2056984;82;33242;-63
2021/10/14 11:08:52;;;;;;;14.40;8.10;;;;;;;15.06;62.75;100834.67;2090413;82;30164;-64
2021/10/14 11:12:01;;;;;;;13.60;8.03;;;;;;;15.01;63.13;100834.92;2100236;83;27633;-64
2021/10/14 11:15:03;;;;;;;15.35;9.20;;;;;;;15.06;62.92;100829.27;2101279;83;28723;-64
2021/10/14 11:18:08;;;;;;;14.78;8.58;;;;;;;15.11;62.76;100830.73;2084326;83;31793;-63
2021/10/14 11:21:14;;;;;;;12.45;7.80;;;;;;;15.14;62.57;100817.52;2092639;83;33760;-64
2021/10/14 11:24:21;;;;;;;15.15;8.95;;;;;;;15.15;62.59;100814.72;2073276;84;29795;-64
2021/10/14 11:27:26;;;;;;;18.85;9.05;;;;;;;15.16;62.68;100808.36;2079347;83;28371;-65
2021/10/14 11:30:44;;;;;;;15.23;9.18;;;;;;;15.19;62.71;100806.83;2091052;82;29469;-64
2021/10/14 11:33:49;;;;;;;14.33;8.10;;;;;;;15.18;62.37;100807.78;2076161;82;30267;-64
2021/10/14 11:37:03;;;;;;;16.40;9.03;;;;;;;15.14;62.12;100806.23;2097651;83;33787;-63
2021/10/14 11:40:09;;;;;;;13.18;7.37;;;;;;;15.05;61.71;100809.50;2092380;83;29376;-63
2021/10/14 11:43:15;;;;;;;12.65;7.20;;;;;;;14.93;62.01;100807.55;2099686;83;27752;-65
2021/10/14 11:46:28;;;;;;;7.95;5.08;;;;;;;14.86;62.27;100805.70;2096432;82;28927;-63
2021/10/14 11:49:35;;;;;;;12.03;6.85;;;;;;;14.87;62.06;100798.00;2094668;83;32317;-64
2021/10/14 11:52:40;;;;;;;26.97;12.10;;;;;;;14.91;62.12;100795.48;2083127;83;33609;-64
2021/10/14 11:55:56;;;;;;;31.35;17.35;;;;;;;14.92;62.08;100801.76;2094720;83;29353;-64
2021/10/14 11:59:04;;;;;;;17.95;8.70;;;;;;;14.79;61.18;100799.80;2078578;83;27864;-64
2021/10/14 12:02:16;;;;;;;12.40;7.25;;;;;;;14.70;61.45;100796.28;2098689;82;28879;-64
2021/10/14 12:05:22;;;;;;;11.33;7.47;;;;;;;14.68;61.92;100791.46;2089120;82;32434;-64
2021/10/14 12:08:25;;;;;;;7.10;5.75;;;;;;;14.57;61.30;100783.50;2096809;81;33177;-64
2021/10/14 12:11:29;;;;;;;9.43;5.92;;;;;;;14.54;61.63;100786.87;2125528;82;29489;-64
2021/10/14 12:14:35;;;;;;;12.33;6.10;;;;;;;14.50;61.54;100789.34;2146734;81;27668;-65
2021/10/14 12:17:41;;;;;;;7.10;5.28;;;;;;;14.45;61.48;100780.19;2103917;82;28655;-63
2021/10/14 12:20:47;;;;;;;6.22;3.45;;;;;;;14.36;61.12;100773.50;2130167;81;31740;-63
2021/10/14 12:24:10;;;;;;;7.62;4.15;;;;;;;14.25;60.83;100769.19;2108231;82;33020;-63
2021/10/14 12:27:14;;;;;;;10.30;5.83;;;;;;;14.17;60.94;100764.73;2110842;81;30173;-64
2021/10/14 12:30:27;;;;;;;7.67;4.22;;;;;;;14.17;61.07;100764.73;2147970;81;27700;-63
2021/10/14 12:33:30;;;;;;;5.78;4.10;;;;;;;14.16;61.20;100765.69;2144652;81;28671;-63
2021/10/14 12:36:47;;;;;;;12.78;5.70;;;;;;;14.07;60.89;100763.04;2135826;81;31015;-63
2021/10/14 12:40:21;;;;;;;8.20;5.30;;;;;;;13.93;60.38;100763.81;2136111;81;34149;-63
2021/10/14 12:43:27;;;;;;;9.93;6.08;;;;;;;13.77;59.82;100766.02;2138636;77;29786;-65
2021/10/14 12:50:12;;;;;;;6.65;5.65;;;;;;;13.56;60.03;100758.66;2097793;82;29136;-64
2021/10/14 12:53:13;;;;;;;8.15;6.65;;;;;;;13.46;59.83;100760.98;2084038;83;31768;-63
2021/10/14 12:56:19;;;;;;;15.25;9.48;;;;;;;13.42;60.02;100763.92;2052573;84;34221;-63
2021/10/14 12:59:23;;;;;;;26.87;13.00;;;;;;;13.33;60.03;100755.84;2033920;85;29516;-63
2021/10/14 13:02:28;;;;;;;16.35;8.50;;;;;;;13.28;60.10;100754.75;2051264;85;27764;-63
2021/10/14 13:05:31;;;;;;;;;;;;;;;13.34;60.61;100757.09;2069049;84;29366;-62
2021/10/14 13:08:40;;;;;;;12.75;8.65;;;;;;;13.31;60.32;100755.05;2087953;84;31080;-64
2021/10/14 13:11:43;;;;;;;15.98;10.45;;;;;;;13.24;60.48;100758.55;2062778;84;33015;-62
2021/10/14 13:14:47;;;;;;;;;;;;;;;13.19;60.85;100753.88;2065420;84;29343;-64
2021/10/14 13:17:54;;;;;;;11.53;8.63;;;;;;;13.15;60.87;100746.95;2060103;84;27667;-64
2021/10/14 13:21:01;;;;;;;9.48;6.62;;;;;;;13.09;60.49;100751.30;2044361;85;28667;-63
2021/10/14 13:24:03;;;;;;;13.50;7.83;;;;;;;13.02;60.63;100746.72;2066318;83;31076;-64
2021/10/14 13:27:09;;;;;;;13.75;7.28;;;;;;;12.94;60.95;100743.09;2038239;85;33836;-63
2021/10/14 13:30:12;;;;;;;11.43;7.33;;;;;;;12.90;60.81;100732.98;2028880;85;29411;-63
2021/10/14 13:33:21;;;;;;;14.03;9.20;;;;;;;12.83;60.90;100730.66;2081318;83;27787;-63
2021/10/14 13:36:24;;;;;;;15.05;9.30;;;;;;;12.81;60.79;100732.09;2101422;81;29601;-64
2021/10/14 13:39:30;;;;;;;11.20;7.83;;;;;;;12.72;60.68;100727.21;2070628;83;32023;-63
2021/10/14 13:42:37;;;;;;;11.80;7.58;;;;;;;12.64;60.94;100728.95;2055698;84;33004;-64
2021/10/14 13:45:38;;;;;;;12.90;8.13;;;;;;;12.64;61.19;100720.00;2070561;84;29349;-64
2021/10/14 13:48:42;;;;;;;10.55;8.08;;;;;;;12.63;61.34;100720.95;2115583;82;27780;-64
2021/10/14 13:51:48;;;;;;;13.50;9.05;;;;;;;12.65;61.48;100710.99;2113962;82;29656;-63
2021/10/14 13:54:54;;;;;;;9.50;7.78;;;;;;;12.64;61.63;100700.73;2070184;84;31864;-64
2021/10/14 13:58:01;;;;;;;12.13;7.80;;;;;;;12.61;61.43;100696.36;2071210;82;32995;-64
2021/10/14 14:01:06;;;;;;;10.20;6.87;;;;;;;12.52;61.16;100699.54;2154014;81;29395;-64
2021/10/14 14:04:08;;;;;;;15.58;7.90;;;;;;;12.45;61.52;100696.30;2129774;82;27692;-64
2021/10/14 14:07:14;;;;;;;14.03;7.28;;;;;;;12.43;61.80;100699.53;2130510;82;29856;-64
2021/10/14 14:10:20;;;;;;;14.47;7.80;;;;;;;12.43;61.99;100706.25;2141148;82;31050;-64
2021/10/14 14:13:26;;;;;;;10.43;7.22;;;;;;;12.42;61.86;100703.62;2147519;80;32995;-64
2021/10/14 14:16:32;;;;;;;14.15;8.20;;;;;;;12.38;61.92;100703.41;2100938;82;29343;-65
2021/10/14 14:19:38;;;;;;;9.05;7.50;;;;;;;12.36;62.24;100701.27;2080385;82;27919;-64
2021/10/14 14:22:43;;;;;;;13.00;7.95;;;;;;;12.33;62.03;100703.62;2067789;82;28681;-64
2021/10/14 14:25:50;;;;;;;10.10;7.92;;;;;;;12.28;62.14;100691.77;2064613;84;31422;-64
2021/10/14 14:28:55;;;;;;;10.05;7.03;;;;;;;12.26;62.28;100687.44;2081584;83;33090;-65